Nearby METAR Reports

 

KEWB - New Bedford, Massachusetts, USA
Distance from station: ESE 9mi, 15km
Updated: Mon, 17-Jun-2024 4:53am EDT
Clear
Clear
 Wind from calm
Wind: Calm
Temperature: 55°F , 13°C
Dew Point: 54°F , 12°C
Humidity: 94%
Barometer: 30.24 inHg , 1024 hPa
Clouds: Clear
Visibility: 10 miles , 16 km
2024/06/17 08:53 KEWB 170853Z AUTO 00000KT 10SM CLR 13/12 A3024 RMK AO2 SLP239 T01280117 53002
KTAN - Taunton, Massachusetts, USA
Distance from station: NNE 11mi, 18km
Updated: Mon, 17-Jun-2024 4:52am EDT
Clear
Clear
 Wind from calm
Wind: Calm
Temperature: 55°F , 13°C
Dew Point: 52°F , 11°C
Humidity: 88%
Barometer: 30.24 inHg , 1024 hPa
Clouds: Clear
Visibility: 10 miles , 16 km
2024/06/17 08:52 KTAN 170852Z AUTO 00000KT 10SM CLR 13/11 A3024 RMK AO2 SLP239 T01280106 53001
 
KPVD - Providence/Green, Rhode Island, USA
Distance from station: W 16mi, 26km
Updated: Mon, 17-Jun-2024 4:51am EDT
Clear
Clear
 Wind from calm
Wind: Calm
Temperature: 57°F , 14°C
Dew Point: 55°F , 13°C
Humidity: 94%
Barometer: 30.24 inHg , 1024 hPa
Clouds: Clear
Visibility: 10 miles , 16 km
2024/06/17 08:51 KPVD 170851Z 00000KT 10SM CLR 14/13 A3024 RMK AO2 SLP241 T01390128 51001 $
KUUU - Newport, Rhode Island, USA
Distance from station: SSW 16mi, 27km
Updated: Mon, 17-Jun-2024 4:53am EDT
Clear
Clear
 Wind from S
Wind: S 6 mph , 9 km/h
Temperature: 59°F , 15°C
Dew Point: 57°F , 14°C
Humidity: 94%
Barometer: 30.23 inHg , 1023.7 hPa
Clouds: Clear
Visibility: 10 miles , 16 km
2024/06/17 08:53 KUUU 170853Z AUTO 18005KT 10SM CLR 15/14 A3023 RMK AO2 SLP236 T01500139 58000
 
KOQU - N. Kingston/Quon, Rhode Island, USA
Distance from station: WSW 18mi, 29km
Updated: Sun, 16-Jun-2024 7:50pm EDT
NOT Current
Clear
Clear
 Wind from S
Wind: S 21 mph , 33 km/h
Temperature: 70°F , 21°C
Dew Point: 52°F , 11°C
Humidity: 53%
Barometer: 30.23 inHg , 1023.7 hPa
Clouds: Clear
Visibility: 10 miles , 16 km
2024/06/16 23:50 KOQU 162350Z 18018KT 10SM CLR 21/11 A3023 RMK LAST
KPYM - Plymouth, Massachusetts, USA
Distance from station: ENE 23mi, 37km
Updated: Mon, 17-Jun-2024 4:52am EDT
Clear
Clear
 Wind from calm
Wind: Calm
Temperature: 59°F , 15°C
Dew Point: 54°F , 12°C
Humidity: 82%
Barometer: 30.23 inHg , 1023.7 hPa
Clouds: Clear
Visibility: 10 miles , 16 km
2024/06/17 08:52 KPYM 170852Z AUTO 00000KT 10SM CLR 15/12 A3023 RMK AO2 SLP240 T01500117 55000
 
KSFZ - Pawtucket, Rhode Island, USA
Distance from station: WNW 23mi, 38km
Updated: Mon, 17-Jun-2024 4:56am EDT
Clear
Clear
 Wind from calm
Wind: Calm
Temperature: 54°F , 12°C
Dew Point: 54°F , 12°C
Humidity: 100%
Barometer: 30.24 inHg , 1024 hPa
Clouds: Clear
Visibility: 10 miles , 16 km
2024/06/17 08:56 KSFZ 170856Z AUTO 00000KT 10SM CLR 12/12 A3024 RMK AO2 SLP240 T01220122 53002 $
KOWD - Norwood, Massachusetts, USA
Distance from station: N 31mi, 50km
Updated: Mon, 17-Jun-2024 4:53am EDT
Clear
Clear
 Wind from calm
Wind: Calm
Temperature: 55°F , 13°C
Dew Point: 54°F , 12°C
Humidity: 94%
Barometer: 30.24 inHg , 1024 hPa
Clouds: Clear
Visibility: 10 miles , 16 km
2024/06/17 08:53 KOWD 170853Z AUTO 00000KT 10SM CLR 13/12 A3024 RMK AO2 SLP238 T01330117 53003
 
KFMH - Falmouth/Otis Ab, Massachusetts, USA
Distance from station: ESE 32mi, 51km
Updated: Mon, 17-Jun-2024 4:56am EDT
Clear
Clear
 Wind from SSW
Wind: SSW 5 mph , 7 km/h
Temperature: 59°F , 15°C
Dew Point: 55°F , 13°C
Humidity: 88%
Barometer: 30.27 inHg , 1025.1 hPa
Clouds: Clear
Visibility: 10 miles , 16 km
2024/06/17 08:56 KFMH 170856Z 21004KT 10SM CLR 15/13 A3027
KMQE - East Milton, Massachusetts, USA
Distance from station: N 33mi, 53km
Updated: Thu, 01-Jul-2021 9:51am EDT
NOT Current

 Wind from WNW
Wind: WNW 9 mph , 15 km/h
Temperature: 75°F , 24°C
Dew Point: 70°F , 21°C
Humidity: 83%
Barometer: 29.86 inHg , 1011.2 hPa
2021/07/01 13:51 KMQE 011351Z AUTO 30008KT 24/21 A2986 RMK AO1 SLP116 T02440206
 
KGHG - Marshfield, Massachusetts, USA
Distance from station: NE 34mi, 55km
Updated: Mon, 17-Jun-2024 5:15am EDT
Clear
Clear
 Wind from varies
Wind: varies 3 mph , 6 km/h
Temperature: 57°F , 14°C
Dew Point: 54°F , 12°C
Humidity: 88%
Barometer: 30.24 inHg , 1024 hPa
Clouds: Clear
Visibility: 10 miles , 16 km
2024/06/17 09:15 KGHG 170915Z AUTO VRB03KT 10SM CLR 14/12 A3024 RMK AO2
KMVY - Marthas Vineyard, Massachusetts, USA
Distance from station: SE 35mi, 56km
Updated: Mon, 17-Jun-2024 4:53am EDT
Clear
Clear
 Wind from S
Wind: S 6 mph , 9 km/h
Temperature: 57°F , 14°C
Dew Point: 54°F , 12°C
Humidity: 88%
Barometer: 30.25 inHg , 1024.4 hPa
Clouds: Clear
Visibility: 10 miles , 16 km
2024/06/17 08:53 KMVY 170853Z AUTO 18005KT 10SM CLR 14/12 A3025 RMK AO2 SLP243 T01390122 51003
 
KBOS - Boston, Massachusetts, USA
Distance from station: N 44mi, 71km
Updated: Mon, 17-Jun-2024 4:54am EDT
Partly cloudy
Partly cloudy
 Wind from SW
Wind: SW 9 mph , 15 km/h
Temperature: 61°F , 16°C
Dew Point: 52°F , 11°C
Humidity: 72%
Barometer: 30.23 inHg , 1023.7 hPa
Clouds: Partly cloudy
Visibility: 10 miles , 16 km
Cloud details: Partly cloudy 13000 ft
Partly cloudy 22000 ft
2024/06/17 08:54 KBOS 170854Z 22008KT 10SM SCT130 SCT220 16/11 A3023 RMK AO2 SLP238 T01560111 53004 $
KHYA - Hyannis, Massachusetts, USA
Distance from station: E 44mi, 71km
Updated: Mon, 17-Jun-2024 4:56am EDT
Clear
Clear
 Wind from SSW
Wind: SSW 6 mph , 9 km/h
Temperature: 61°F , 16°C
Dew Point: 52°F , 11°C
Humidity: 72%
Barometer: 30.24 inHg , 1024 hPa
Clouds: Clear
Visibility: 10 miles , 16 km
2024/06/17 08:56 KHYA 170856Z AUTO 20005KT 10SM CLR 16/11 A3024 RMK AO2 SLP241 T01610111 53003
 
KWST - Westerly, Rhode Island, USA
Distance from station: SW 44mi, 71km
Updated: Mon, 17-Jun-2024 4:53am EDT
Clear
Clear
 Wind from N
Wind: N 3 mph , 6 km/h
Temperature: 54°F , 12°C
Dew Point: 50°F , 10°C
Humidity: 88%
Barometer: 30.23 inHg , 1023.7 hPa
Clouds: Clear
Visibility: 10 miles , 16 km
2024/06/17 08:53 KWST 170853Z AUTO 36003KT 10SM CLR 12/10 A3023 RMK AO2 SLP237 T01170100 58001
KBID - Block Island, Rhode Island, USA
Distance from station: SSW 46mi, 74km
Updated: Mon, 17-Jun-2024 4:56am EDT
Clear
Clear
 Wind from S
Wind: S 8 mph , 13 km/h
Temperature: 61°F , 16°C
Dew Point: 57°F , 14°C
Humidity: 88%
Barometer: 30.24 inHg , 1024 hPa
Clouds: Clear
Visibility: 10 miles , 16 km
2024/06/17 08:56 KBID 170856Z AUTO 18007KT 10SM CLR 16/14 A3024 RMK AO2 SLP240 6//// T01610144 58001 PNO $